createdAt,value
2024-01-05T00:02:27.206Z,82.23
2024-01-05T00:07:30.026Z,82.15
2024-01-05T00:12:31.673Z,82.49
2024-01-05T00:17:33.262Z,82.70
2024-01-05T00:22:36.182Z,82.29
2024-01-05T00:27:37.764Z,81.32
2024-01-05T00:32:39.389Z,80.91
2024-01-05T00:37:42.284Z,80.70
2024-01-05T00:42:43.884Z,80.16
2024-01-05T00:47:45.485Z,80.28
2024-01-05T00:52:48.374Z,79.48
2024-01-05T00:57:49.870Z,79.70
2024-01-05T01:02:51.602Z,79.47
2024-01-05T01:07:54.461Z,79.94
2024-01-05T01:12:55.942Z,81.44
2024-01-05T01:17:57.583Z,81.79
2024-01-05T01:23:00.535Z,81.81
2024-01-05T01:28:02.074Z,82.53
2024-01-05T01:33:04.267Z,81.51
2024-01-05T01:38:07.283Z,81.68
2024-01-05T01:43:18.134Z,82.11
2024-01-05T01:48:20.880Z,82.02
2024-01-05T01:53:25.865Z,81.16
2024-01-05T01:58:27.496Z,81.03
2024-01-05T02:03:29.257Z,81.09
2024-01-05T02:08:32.218Z,80.08
2024-01-05T02:13:33.829Z,79.93
2024-01-05T02:18:35.627Z,79.15
2024-01-05T02:23:38.657Z,78.29
2024-01-05T02:28:40.194Z,77.70
2024-01-05T02:33:41.854Z,77.49
2024-01-05T02:38:44.870Z,77.61
2024-01-05T02:43:46.465Z,77.54
2024-01-05T02:48:48.312Z,77.50
2024-01-05T02:53:51.241Z,76.64
2024-01-05T02:58:53.645Z,76.44
2024-01-05T03:03:55.852Z,76.97
2024-01-05T03:08:58.774Z,76.91
2024-01-05T03:14:00.324Z,77.86
2024-01-05T03:19:02.099Z,77.29
2024-01-05T03:24:06.339Z,77.07
2024-01-05T03:29:07.851Z,77.70
2024-01-05T03:34:09.559Z,76.82
2024-01-05T03:39:12.734Z,77.75
2024-01-05T03:44:14.302Z,77.32
2024-01-05T03:49:16.349Z,78.70
2024-01-05T03:54:19.326Z,79.43
2024-01-05T03:59:20.822Z,79.57
2024-01-05T04:04:22.455Z,79.78
2024-01-05T04:09:25.573Z,80.64
2024-01-05T04:14:27.153Z,80.27
2024-01-05T04:19:28.873Z,80.73
2024-01-05T04:24:32.001Z,80.47
2024-01-05T04:29:33.677Z,80.80
2024-01-05T04:34:35.486Z,81.54
2024-01-05T04:39:38.468Z,80.86
2024-01-05T04:44:40.051Z,81.40
2024-01-05T04:49:41.646Z,81.27
2024-01-05T04:54:44.611Z,80.77
2024-01-05T04:59:46.192Z,80.65
2024-01-05T05:04:48.905Z,80.67
2024-01-05T05:09:51.886Z,80.56
2024-01-05T05:14:53.495Z,80.55
2024-01-05T05:19:55.013Z,80.76
2024-01-05T05:24:57.920Z,79.79
2024-01-05T05:29:59.619Z,79.87
2024-01-05T05:35:01.315Z,80.66
2024-01-05T05:40:05.029Z,80.38
2024-01-05T05:45:07.766Z,79.86
2024-01-05T05:50:09.690Z,79.65
2024-01-05T05:55:12.570Z,80.57
2024-01-05T06:00:14.947Z,81.22
2024-01-05T06:05:16.562Z,81.48
2024-01-05T06:10:19.503Z,80.54
2024-01-05T06:15:21.061Z,81.11
2024-01-05T06:20:22.643Z,81.39
2024-01-05T06:25:25.516Z,81.61
2024-01-05T06:30:27.125Z,82.20
2024-01-05T06:35:28.740Z,81.83
2024-01-05T06:40:31.643Z,82.21
2024-01-05T06:45:33.189Z,82.43
2024-01-05T06:50:37.386Z,82.45
2024-01-05T06:55:40.572Z,82.13
2024-01-05T07:00:42.193Z,82.11
2024-01-05T07:05:43.829Z,81.89
2024-01-05T07:10:46.706Z,81.65
2024-01-05T07:15:48.292Z,81.25
2024-01-05T07:20:49.785Z,81.19
2024-01-05T07:25:52.621Z,81.41
2024-01-05T07:30:54.254Z,81.26
2024-01-05T07:35:55.825Z,80.78
2024-01-05T07:40:58.678Z,81.21
2024-01-05T07:46:02.790Z,80.81
2024-01-05T07:51:04.893Z,79.49
2024-01-05T07:56:08.846Z,79.86
2024-01-05T08:01:15.116Z,79.22
2024-01-05T08:06:16.865Z,79.29
2024-01-05T08:11:19.784Z,79.87
2024-01-05T08:16:21.355Z,78.86
2024-01-05T08:21:22.974Z,78.65
2024-01-05T08:26:25.901Z,78.73
2024-01-05T08:31:27.620Z,78.21
2024-01-05T08:36:29.362Z,77.83
2024-01-05T08:41:32.404Z,77.92
2024-01-05T08:46:33.956Z,77.86
2024-01-05T08:51:41.981Z,77.25
2024-01-05T08:56:44.844Z,77.01
2024-01-05T09:01:46.528Z,76.71
2024-01-05T09:06:48.233Z,76.62
2024-01-05T09:11:51.212Z,76.76
2024-01-05T09:16:52.806Z,75.96
2024-01-05T09:21:54.364Z,75.91
2024-01-05T09:26:57.405Z,76.01
2024-01-05T09:31:59.174Z,74.36
2024-01-05T09:37:00.770Z,76.28
2024-01-05T09:42:04.083Z,74.47
2024-01-05T09:47:06.986Z,74.20
2024-01-05T09:52:10.819Z,74.91
2024-01-05T09:57:17.530Z,74.46
2024-01-05T10:02:25.807Z,73.52
2024-01-05T10:07:27.420Z,73.29
2024-01-05T10:12:30.411Z,73.50
2024-01-05T10:17:31.958Z,73.01
2024-01-05T10:22:33.498Z,72.94
2024-01-05T10:27:36.452Z,73.26
2024-01-05T10:32:37.990Z,73.24
2024-01-05T10:37:39.538Z,73.64
2024-01-05T10:42:42.496Z,73.78
2024-01-05T10:47:47.334Z,73.88
2024-01-05T10:52:49.176Z,73.83
2024-01-05T10:57:52.087Z,73.94
2024-01-05T11:03:04.185Z,73.64
2024-01-05T11:08:06.380Z,73.97
2024-01-05T11:13:36.859Z,73.81
2024-01-05T11:18:57.669Z,74.22
2024-01-05T11:23:59.855Z,74.17
2024-01-05T11:29:03.500Z,75.23
2024-01-05T11:34:05.094Z,75.12
2024-01-05T11:39:06.751Z,75.21
2024-01-05T11:44:32.447Z,73.98
2024-01-05T11:49:37.381Z,74.66
2024-01-05T11:54:39.222Z,74.24
2024-01-05T11:59:42.168Z,74.50
2024-01-05T12:04:46.653Z,74.89
2024-01-05T12:09:52.253Z,75.10
2024-01-05T12:14:55.177Z,74.92
2024-01-05T12:20:07.253Z,76.00
2024-01-05T12:25:09.534Z,76.03
2024-01-05T12:30:13.356Z,75.01
2024-01-05T12:35:15.302Z,76.17
2024-01-05T12:40:22.657Z,76.05
2024-01-05T12:45:27.472Z,76.23
2024-01-05T12:50:30.329Z,77.20
2024-01-05T12:55:33.302Z,76.88
2024-01-05T13:00:41.398Z,77.64
2024-01-05T13:05:43.454Z,77.55
2024-01-05T13:10:45.050Z,77.53
2024-01-05T13:15:47.964Z,77.33
2024-01-05T13:20:49.586Z,77.19
2024-01-05T13:25:51.608Z,76.82
2024-01-05T13:30:54.579Z,76.39
2024-01-05T13:35:56.234Z,76.36
2024-01-05T13:40:57.849Z,76.68
2024-01-05T13:46:00.753Z,78.33
2024-01-05T13:51:02.371Z,76.87
2024-01-05T13:56:04.222Z,77.98
2024-01-05T14:01:07.169Z,77.77
2024-01-05T14:06:10.283Z,78.15
2024-01-05T14:11:12.549Z,78.42
2024-01-05T14:16:15.466Z,78.91
2024-01-05T14:21:21.681Z,78.65
2024-01-05T14:26:23.981Z,78.85
2024-01-05T14:31:31.431Z,78.97
2024-01-05T14:36:33.058Z,78.90
2024-01-05T14:41:34.674Z,79.08
2024-01-05T14:46:37.504Z,79.78
2024-01-05T14:51:39.099Z,80.01
2024-01-05T14:56:40.613Z,79.92
2024-01-05T15:01:43.622Z,80.69
2024-01-05T15:06:45.358Z,81.61
2024-01-05T15:11:47.023Z,81.55
2024-01-05T15:16:49.896Z,82.75
2024-01-05T15:21:51.609Z,83.20
2024-01-05T15:26:53.215Z,84.02
2024-01-05T15:31:56.174Z,83.94
2024-01-05T15:36:57.681Z,85.32
2024-01-05T15:41:59.325Z,85.40
2024-01-05T15:47:02.185Z,85.58
2024-01-05T15:52:04.457Z,85.42
2024-01-05T15:57:06.206Z,86.26
2024-01-05T16:02:09.176Z,86.11
2024-01-05T16:07:10.740Z,86.33
2024-01-05T16:12:12.338Z,86.82
2024-01-05T16:17:15.276Z,87.00
2024-01-05T16:22:16.840Z,86.50
2024-01-05T16:27:18.457Z,86.31
2024-01-05T16:32:21.345Z,87.09
2024-01-05T16:37:22.886Z,87.31
2024-01-05T16:42:24.517Z,87.35
2024-01-05T16:47:27.516Z,87.19
2024-01-05T16:52:29.080Z,87.68
2024-01-05T16:57:30.668Z,87.16
2024-01-05T17:02:33.646Z,86.93
2024-01-05T17:07:35.303Z,87.83
2024-01-05T17:12:36.922Z,88.11
2024-01-05T17:17:40.000Z,87.99
2024-01-05T17:22:41.553Z,87.29
2024-01-05T17:27:43.216Z,87.39
2024-01-05T17:32:46.425Z,87.98
2024-01-05T17:37:48.249Z,88.05
2024-01-05T17:42:49.814Z,87.94
2024-01-05T17:47:52.744Z,87.88
2024-01-05T17:52:54.360Z,87.59
2024-01-05T17:57:55.988Z,87.77
2024-01-05T18:02:58.834Z,87.97
2024-01-05T18:08:00.398Z,88.35
2024-01-05T18:13:02.021Z,88.00
2024-01-05T18:18:05.752Z,88.67
2024-01-05T18:23:07.392Z,88.09
2024-01-05T18:28:08.997Z,88.35
2024-01-05T18:33:12.052Z,88.16
2024-01-05T18:38:13.728Z,88.57
2024-01-05T18:43:15.288Z,88.29
2024-01-05T18:48:18.344Z,87.99
2024-01-05T18:53:20.018Z,88.07
2024-01-05T18:58:21.559Z,87.75
2024-01-05T19:03:24.842Z,88.15
2024-01-05T19:08:26.708Z,88.10
2024-01-05T19:13:28.622Z,87.93
2024-01-05T19:18:31.656Z,87.99
2024-01-05T19:23:33.423Z,88.62
2024-01-05T19:28:34.976Z,88.36
2024-01-05T19:33:38.838Z,89.26
2024-01-05T19:38:40.461Z,89.22
2024-01-05T19:43:41.950Z,89.45
2024-01-05T19:48:44.928Z,89.26
2024-01-05T19:53:46.505Z,90.29
2024-01-05T19:58:48.116Z,91.85
2024-01-05T20:03:51.109Z,91.49
2024-01-05T20:08:52.765Z,91.33
2024-01-05T20:13:54.279Z,91.26
2024-01-05T20:18:57.382Z,90.23
2024-01-05T20:23:59.509Z,89.77
2024-01-05T20:29:01.040Z,89.81
2024-01-05T20:34:03.989Z,89.73
2024-01-05T20:39:05.761Z,89.95
2024-01-05T20:44:09.043Z,89.24
2024-01-05T20:49:14.971Z,89.33
2024-01-05T20:54:16.753Z,88.46
2024-01-05T20:59:18.336Z,87.77
2024-01-05T21:04:21.540Z,87.25
2024-01-05T21:09:23.206Z,87.46
2024-01-05T21:14:24.786Z,87.29
2024-01-05T21:19:27.757Z,86.57
2024-01-05T21:24:29.395Z,86.45
2024-01-05T21:29:30.892Z,86.00
2024-01-05T21:34:33.843Z,85.54
2024-01-05T21:39:35.804Z,85.18
2024-01-05T21:44:37.363Z,85.47
2024-01-05T21:49:40.759Z,86.21
2024-01-05T21:54:42.468Z,86.27
2024-01-05T21:59:44.150Z,87.14
2024-01-05T22:04:47.000Z,86.77
2024-01-05T22:09:48.637Z,86.88
2024-01-05T22:14:50.298Z,86.58
2024-01-05T22:19:53.344Z,86.84
2024-01-05T22:24:55.090Z,87.37
2024-01-05T22:29:56.656Z,86.96
2024-01-05T22:34:59.690Z,86.79
2024-01-05T22:40:01.335Z,86.26
2024-01-05T22:45:02.876Z,85.98
2024-01-05T22:50:06.676Z,85.75
2024-01-05T22:55:09.193Z,86.54
2024-01-05T23:00:11.660Z,86.51
2024-01-05T23:05:15.735Z,87.26
2024-01-05T23:10:17.341Z,86.75
2024-01-05T23:15:19.020Z,86.75
2024-01-05T23:20:22.183Z,88.18
2024-01-05T23:25:23.847Z,88.52
2024-01-05T23:30:25.706Z,89.58
2024-01-05T23:35:28.659Z,90.73
2024-01-05T23:40:30.260Z,90.66
2024-01-05T23:45:32.059Z,90.80
2024-01-05T23:50:34.966Z,90.94
2024-01-05T23:55:36.809Z,91.24
